sensor_id;sensor_type;location;lat;lon;timestamp;temperature;humidity
23120;DHT22;11729;50.836;4.330;2023-12-20T00:01:37;7.50;99.90
23120;DHT22;11729;50.836;4.330;2023-12-20T00:04:03;7.50;99.90
23120;DHT22;11729;50.836;4.330;2023-12-20T00:06:30;7.40;99.90
23120;DHT22;11729;50.836;4.330;2023-12-20T00:08:56;7.30;99.90
23120;DHT22;11729;50.836;4.330;2023-12-20T00:11:23;7.30;99.90
23120;DHT22;11729;50.836;4.330;2023-12-20T00:13:50;7.30;99.90
23120;DHT22;11729;50.836;4.330;2023-12-20T00:16:16;7.40;99.90
23120;DHT22;11729;50.836;4.330;2023-12-20T00:18:42;7.40;99.90
23120;DHT22;11729;50.836;4.330;2023-12-20T00:21:07;7.40;99.90
23120;DHT22;11729;50.836;4.330;2023-12-20T00:23:33;7.50;99.90
23120;DHT22;11729;50.836;4.330;2023-12-20T00:25:59;7.40;99.90
23120;DHT22;11729;50.836;4.330;2023-12-20T00:28:24;7.40;99.90
23120;DHT22;11729;50.836;4.330;2023-12-20T00:30:50;7.40;99.90
23120;DHT22;11729;50.836;4.330;2023-12-20T00:33:15;7.40;99.90
23120;DHT22;11729;50.836;4.330;2023-12-20T00:35:41;7.50;99.90
23120;DHT22;11729;50.836;4.330;2023-12-20T00:38:07;7.40;99.90
23120;DHT22;11729;50.836;4.330;2023-12-20T00:40:34;7.40;99.90
23120;DHT22;11729;50.836;4.330;2023-12-20T00:43:00;7.30;99.90
23120;DHT22;11729;50.836;4.330;2023-12-20T00:45:25;7.30;99.90
23120;DHT22;11729;50.836;4.330;2023-12-20T00:47:51;7.30;99.90
23120;DHT22;11729;50.836;4.330;2023-12-20T00:50:17;7.30;99.90
23120;DHT22;11729;50.836;4.330;2023-12-20T00:52:43;7.20;99.90
23120;DHT22;11729;50.836;4.330;2023-12-20T00:55:08;7.00;99.90
23120;DHT22;11729;50.836;4.330;2023-12-20T00:57:35;6.90;99.90
23120;DHT22;11729;50.836;4.330;2023-12-20T01:00:01;6.90;99.90
23120;DHT22;11729;50.836;4.330;2023-12-20T01:02:27;6.80;99.90
23120;DHT22;11729;50.836;4.330;2023-12-20T01:04:52;6.80;99.90
23120;DHT22;11729;50.836;4.330;2023-12-20T01:07:18;6.80;99.90
23120;DHT22;11729;50.836;4.330;2023-12-20T01:09:44;6.80;99.90
23120;DHT22;11729;50.836;4.330;2023-12-20T01:12:10;6.70;99.90
23120;DHT22;11729;50.836;4.330;2023-12-20T01:14:35;6.70;99.90
23120;DHT22;11729;50.836;4.330;2023-12-20T01:17:01;6.90;99.90
23120;DHT22;11729;50.836;4.330;2023-12-20T01:19:27;7.00;99.90
23120;DHT22;11729;50.836;4.330;2023-12-20T01:21:55;7.00;99.90
23120;DHT22;11729;50.836;4.330;2023-12-20T01:24:21;6.90;99.90
23120;DHT22;11729;50.836;4.330;2023-12-20T01:26:47;6.80;99.90
23120;DHT22;11729;50.836;4.330;2023-12-20T01:29:14;6.80;99.90
23120;DHT22;11729;50.836;4.330;2023-12-20T01:31:41;6.90;99.90
23120;DHT22;11729;50.836;4.330;2023-12-20T01:34:07;6.80;99.90
23120;DHT22;11729;50.836;4.330;2023-12-20T01:36:34;6.70;99.90
23120;DHT22;11729;50.836;4.330;2023-12-20T01:38:59;6.70;99.90
23120;DHT22;11729;50.836;4.330;2023-12-20T01:41:25;6.80;99.90
23120;DHT22;11729;50.836;4.330;2023-12-20T01:43:50;7.00;99.90
23120;DHT22;11729;50.836;4.330;2023-12-20T01:46:19;7.00;99.90
23120;DHT22;11729;50.836;4.330;2023-12-20T01:48:45;6.90;99.90
23120;DHT22;11729;50.836;4.330;2023-12-20T01:51:12;6.90;99.90
23120;DHT22;11729;50.836;4.330;2023-12-20T01:53:39;6.80;99.90
23120;DHT22;11729;50.836;4.330;2023-12-20T01:56:07;6.80;99.90
23120;DHT22;11729;50.836;4.330;2023-12-20T01:58:35;6.70;99.90
23120;DHT22;11729;50.836;4.330;2023-12-20T02:01:04;6.80;99.90
23120;DHT22;11729;50.836;4.330;2023-12-20T02:03:29;6.80;99.90
23120;DHT22;11729;50.836;4.330;2023-12-20T02:05:55;6.80;99.90
23120;DHT22;11729;50.836;4.330;2023-12-20T02:08:21;6.90;99.90
23120;DHT22;11729;50.836;4.330;2023-12-20T02:10:47;6.90;99.90
23120;DHT22;11729;50.836;4.330;2023-12-20T02:13:14;7.00;99.90
23120;DHT22;11729;50.836;4.330;2023-12-20T02:15:39;6.90;99.90
23120;DHT22;11729;50.836;4.330;2023-12-20T02:18:07;6.80;99.90
23120;DHT22;11729;50.836;4.330;2023-12-20T02:20:33;6.80;99.90
23120;DHT22;11729;50.836;4.330;2023-12-20T02:22:59;6.80;99.90
23120;DHT22;11729;50.836;4.330;2023-12-20T02:25:24;6.70;99.90
23120;DHT22;11729;50.836;4.330;2023-12-20T02:27:52;6.70;99.90
23120;DHT22;11729;50.836;4.330;2023-12-20T02:30:17;6.70;99.90
23120;DHT22;11729;50.836;4.330;2023-12-20T02:32:43;6.80;99.90
23120;DHT22;11729;50.836;4.330;2023-12-20T02:35:10;6.70;99.90
23120;DHT22;11729;50.836;4.330;2023-12-20T02:37:35;6.60;99.90
23120;DHT22;11729;50.836;4.330;2023-12-20T02:40:01;6.60;99.90
23120;DHT22;11729;50.836;4.330;2023-12-20T02:42:27;6.70;99.90
23120;DHT22;11729;50.836;4.330;2023-12-20T02:44:52;6.70;99.90
23120;DHT22;11729;50.836;4.330;2023-12-20T02:47:18;6.70;99.90
23120;DHT22;11729;50.836;4.330;2023-12-20T02:49:43;6.80;99.90
23120;DHT22;11729;50.836;4.330;2023-12-20T02:52:09;6.90;99.90
23120;DHT22;11729;50.836;4.330;2023-12-20T02:54:35;7.00;99.90
23120;DHT22;11729;50.836;4.330;2023-12-20T02:57:00;7.00;99.90
23120;DHT22;11729;50.836;4.330;2023-12-20T02:59:26;7.10;99.90
23120;DHT22;11729;50.836;4.330;2023-12-20T03:01:52;7.10;99.90
23120;DHT22;11729;50.836;4.330;2023-12-20T03:04:18;7.00;99.90
23120;DHT22;11729;50.836;4.330;2023-12-20T03:06:44;6.90;99.90
23120;DHT22;11729;50.836;4.330;2023-12-20T03:09:10;6.90;99.90
23120;DHT22;11729;50.836;4.330;2023-12-20T03:11:35;7.00;99.90
23120;DHT22;11729;50.836;4.330;2023-12-20T03:14:01;7.00;99.90
23120;DHT22;11729;50.836;4.330;2023-12-20T03:16:27;7.10;99.90
23120;DHT22;11729;50.836;4.330;2023-12-20T03:18:52;7.20;99.90
23120;DHT22;11729;50.836;4.330;2023-12-20T03:21:18;7.30;99.90
23120;DHT22;11729;50.836;4.330;2023-12-20T03:23:44;7.40;99.90
23120;DHT22;11729;50.836;4.330;2023-12-20T03:26:10;7.40;99.90
23120;DHT22;11729;50.836;4.330;2023-12-20T03:28:38;7.40;99.90
23120;DHT22;11729;50.836;4.330;2023-12-20T03:31:04;7.30;99.90
23120;DHT22;11729;50.836;4.330;2023-12-20T03:33:30;7.40;99.90
23120;DHT22;11729;50.836;4.330;2023-12-20T03:35:55;7.30;99.90
23120;DHT22;11729;50.836;4.330;2023-12-20T03:38:22;7.40;99.90
23120;DHT22;11729;50.836;4.330;2023-12-20T03:40:49;7.40;99.90
23120;DHT22;11729;50.836;4.330;2023-12-20T03:43:15;7.50;99.90
23120;DHT22;11729;50.836;4.330;2023-12-20T03:45:42;7.50;99.90
23120;DHT22;11729;50.836;4.330;2023-12-20T03:48:08;7.40;99.90
23120;DHT22;11729;50.836;4.330;2023-12-20T03:50:34;7.30;99.90
23120;DHT22;11729;50.836;4.330;2023-12-20T03:53:00;7.30;99.90
23120;DHT22;11729;50.836;4.330;2023-12-20T03:55:26;7.30;99.90
23120;DHT22;11729;50.836;4.330;2023-12-20T03:57:52;7.20;99.90
23120;DHT22;11729;50.836;4.330;2023-12-20T04:00:18;7.10;99.90
23120;DHT22;11729;50.836;4.330;2023-12-20T04:02:44;7.20;99.90
23120;DHT22;11729;50.836;4.330;2023-12-20T04:05:10;7.30;99.90
23120;DHT22;11729;50.836;4.330;2023-12-20T04:07:36;7.40;99.90
23120;DHT22;11729;50.836;4.330;2023-12-20T04:10:03;7.30;99.90
23120;DHT22;11729;50.836;4.330;2023-12-20T04:12:29;7.50;99.90
23120;DHT22;11729;50.836;4.330;2023-12-20T04:14:56;7.50;99.90
23120;DHT22;11729;50.836;4.330;2023-12-20T04:17:23;7.50;99.90
23120;DHT22;11729;50.836;4.330;2023-12-20T04:19:50;7.40;99.90
23120;DHT22;11729;50.836;4.330;2023-12-20T04:22:16;7.30;99.90
23120;DHT22;11729;50.836;4.330;2023-12-20T04:24:42;7.20;99.90
23120;DHT22;11729;50.836;4.330;2023-12-20T04:27:09;7.10;99.90
23120;DHT22;11729;50.836;4.330;2023-12-20T04:29:34;7.10;99.90
23120;DHT22;11729;50.836;4.330;2023-12-20T04:32:00;7.00;99.90
23120;DHT22;11729;50.836;4.330;2023-12-20T04:34:26;7.20;99.90
23120;DHT22;11729;50.836;4.330;2023-12-20T04:36:52;7.20;99.90
23120;DHT22;11729;50.836;4.330;2023-12-20T04:39:18;7.30;99.90
23120;DHT22;11729;50.836;4.330;2023-12-20T04:41:43;7.30;99.90
23120;DHT22;11729;50.836;4.330;2023-12-20T04:44:09;7.30;99.90
23120;DHT22;11729;50.836;4.330;2023-12-20T04:46:35;7.30;99.90
23120;DHT22;11729;50.836;4.330;2023-12-20T04:49:01;7.20;99.90
23120;DHT22;11729;50.836;4.330;2023-12-20T04:51:27;7.20;99.90
23120;DHT22;11729;50.836;4.330;2023-12-20T04:53:52;7.20;99.90
23120;DHT22;11729;50.836;4.330;2023-12-20T04:56:18;7.10;99.90
23120;DHT22;11729;50.836;4.330;2023-12-20T04:58:44;7.10;99.90
23120;DHT22;11729;50.836;4.330;2023-12-20T05:01:09;7.20;99.90
23120;DHT22;11729;50.836;4.330;2023-12-20T05:03:35;7.30;99.90
23120;DHT22;11729;50.836;4.330;2023-12-20T05:06:01;7.30;99.90
23120;DHT22;11729;50.836;4.330;2023-12-20T05:08:27;7.30;99.90
23120;DHT22;11729;50.836;4.330;2023-12-20T05:10:54;7.30;99.90
23120;DHT22;11729;50.836;4.330;2023-12-20T05:13:20;7.40;99.90
23120;DHT22;11729;50.836;4.330;2023-12-20T05:15:46;7.50;99.90
23120;DHT22;11729;50.836;4.330;2023-12-20T05:18:12;7.50;99.90
23120;DHT22;11729;50.836;4.330;2023-12-20T05:20:38;7.50;99.90
23120;DHT22;11729;50.836;4.330;2023-12-20T05:23:04;7.30;99.90
23120;DHT22;11729;50.836;4.330;2023-12-20T05:25:29;7.20;99.90
23120;DHT22;11729;50.836;4.330;2023-12-20T05:27:55;7.20;99.90
23120;DHT22;11729;50.836;4.330;2023-12-20T05:30:21;7.20;99.90
23120;DHT22;11729;50.836;4.330;2023-12-20T05:32:47;7.00;99.90
23120;DHT22;11729;50.836;4.330;2023-12-20T05:35:13;6.90;99.90
23120;DHT22;11729;50.836;4.330;2023-12-20T05:37:39;6.80;99.90
23120;DHT22;11729;50.836;4.330;2023-12-20T05:40:05;6.80;99.90
23120;DHT22;11729;50.836;4.330;2023-12-20T05:42:31;6.80;99.90
23120;DHT22;11729;50.836;4.330;2023-12-20T05:44:57;6.90;99.90
23120;DHT22;11729;50.836;4.330;2023-12-20T05:47:22;6.80;99.90
23120;DHT22;11729;50.836;4.330;2023-12-20T05:49:48;6.80;99.90
23120;DHT22;11729;50.836;4.330;2023-12-20T05:52:15;6.70;99.90
23120;DHT22;11729;50.836;4.330;2023-12-20T05:54:41;6.70;99.90
23120;DHT22;11729;50.836;4.330;2023-12-20T05:57:06;6.70;99.90
23120;DHT22;11729;50.836;4.330;2023-12-20T05:59:32;6.80;99.90
23120;DHT22;11729;50.836;4.330;2023-12-20T06:01:58;6.90;99.90
23120;DHT22;11729;50.836;4.330;2023-12-20T06:04:23;6.90;99.90
23120;DHT22;11729;50.836;4.330;2023-12-20T06:06:49;6.70;99.90
23120;DHT22;11729;50.836;4.330;2023-12-20T06:09:15;6.70;99.90
23120;DHT22;11729;50.836;4.330;2023-12-20T06:11:42;6.70;99.90
23120;DHT22;11729;50.836;4.330;2023-12-20T06:14:07;6.80;99.90
23120;DHT22;11729;50.836;4.330;2023-12-20T06:16:33;6.90;99.90
23120;DHT22;11729;50.836;4.330;2023-12-20T06:18:59;6.90;99.90
23120;DHT22;11729;50.836;4.330;2023-12-20T06:21:25;6.90;99.90
23120;DHT22;11729;50.836;4.330;2023-12-20T06:23:51;7.10;99.90
23120;DHT22;11729;50.836;4.330;2023-12-20T06:26:17;7.00;99.90
23120;DHT22;11729;50.836;4.330;2023-12-20T06:28:42;7.00;99.90
23120;DHT22;11729;50.836;4.330;2023-12-20T06:31:08;7.00;99.90
23120;DHT22;11729;50.836;4.330;2023-12-20T06:33:34;7.00;99.90
23120;DHT22;11729;50.836;4.330;2023-12-20T06:36:00;7.00;99.90
23120;DHT22;11729;50.836;4.330;2023-12-20T06:38:26;7.20;99.90
23120;DHT22;11729;50.836;4.330;2023-12-20T06:40:52;7.20;99.90
23120;DHT22;11729;50.836;4.330;2023-12-20T06:43:17;7.10;99.90
23120;DHT22;11729;50.836;4.330;2023-12-20T06:45:43;6.90;99.90
23120;DHT22;11729;50.836;4.330;2023-12-20T06:48:09;6.90;99.90
23120;DHT22;11729;50.836;4.330;2023-12-20T06:50:36;6.90;99.90
23120;DHT22;11729;50.836;4.330;2023-12-20T06:53:05;6.80;99.90
23120;DHT22;11729;50.836;4.330;2023-12-20T06:55:33;6.70;99.90
23120;DHT22;11729;50.836;4.330;2023-12-20T06:58:01;6.60;99.90
23120;DHT22;11729;50.836;4.330;2023-12-20T07:00:27;6.70;99.90
23120;DHT22;11729;50.836;4.330;2023-12-20T07:02:52;6.70;99.90
23120;DHT22;11729;50.836;4.330;2023-12-20T07:05:18;6.70;99.90
23120;DHT22;11729;50.836;4.330;2023-12-20T07:07:45;6.50;99.90
23120;DHT22;11729;50.836;4.330;2023-12-20T07:10:14;6.40;99.90
23120;DHT22;11729;50.836;4.330;2023-12-20T07:12:39;6.40;99.90
23120;DHT22;11729;50.836;4.330;2023-12-20T07:15:05;6.30;99.90
23120;DHT22;11729;50.836;4.330;2023-12-20T07:17:33;6.20;99.90
23120;DHT22;11729;50.836;4.330;2023-12-20T07:19:59;6.20;99.90
23120;DHT22;11729;50.836;4.330;2023-12-20T07:22:31;6.20;99.90
23120;DHT22;11729;50.836;4.330;2023-12-20T07:24:57;6.20;99.90
23120;DHT22;11729;50.836;4.330;2023-12-20T07:27:23;6.20;99.90
23120;DHT22;11729;50.836;4.330;2023-12-20T07:29:49;6.20;99.90
23120;DHT22;11729;50.836;4.330;2023-12-20T07:32:14;6.20;99.90
23120;DHT22;11729;50.836;4.330;2023-12-20T07:34:40;6.20;99.90
23120;DHT22;11729;50.836;4.330;2023-12-20T07:37:05;6.10;99.90
23120;DHT22;11729;50.836;4.330;2023-12-20T07:39:31;6.10;99.90
23120;DHT22;11729;50.836;4.330;2023-12-20T07:41:56;6.20;99.90
23120;DHT22;11729;50.836;4.330;2023-12-20T07:44:22;6.20;99.90
23120;DHT22;11729;50.836;4.330;2023-12-20T07:46:49;6.30;99.90
23120;DHT22;11729;50.836;4.330;2023-12-20T07:49:15;6.20;99.90
23120;DHT22;11729;50.836;4.330;2023-12-20T07:51:40;6.10;99.90
23120;DHT22;11729;50.836;4.330;2023-12-20T07:54:06;6.20;99.90
23120;DHT22;11729;50.836;4.330;2023-12-20T07:56:33;6.30;99.90
23120;DHT22;11729;50.836;4.330;2023-12-20T07:58:59;6.20;99.90
23120;DHT22;11729;50.836;4.330;2023-12-20T08:01:24;6.20;99.90
23120;DHT22;11729;50.836;4.330;2023-12-20T08:03:50;6.20;99.90
23120;DHT22;11729;50.836;4.330;2023-12-20T08:06:16;6.10;99.90
23120;DHT22;11729;50.836;4.330;2023-12-20T08:08:42;6.10;99.90
23120;DHT22;11729;50.836;4.330;2023-12-20T08:11:09;6.10;99.90
23120;DHT22;11729;50.836;4.330;2023-12-20T08:13:35;6.10;99.90
23120;DHT22;11729;50.836;4.330;2023-12-20T08:16:01;6.10;99.90
23120;DHT22;11729;50.836;4.330;2023-12-20T08:18:28;6.10;99.90
23120;DHT22;11729;50.836;4.330;2023-12-20T08:20:54;6.10;99.90
23120;DHT22;11729;50.836;4.330;2023-12-20T08:23:20;6.10;99.90
23120;DHT22;11729;50.836;4.330;2023-12-20T08:25:46;6.10;99.90
23120;DHT22;11729;50.836;4.330;2023-12-20T08:28:14;6.20;99.90
23120;DHT22;11729;50.836;4.330;2023-12-20T08:30:40;6.40;99.90
23120;DHT22;11729;50.836;4.330;2023-12-20T08:33:06;6.30;99.90
23120;DHT22;11729;50.836;4.330;2023-12-20T08:35:36;6.30;99.90
23120;DHT22;11729;50.836;4.330;2023-12-20T08:38:02;6.30;99.90
23120;DHT22;11729;50.836;4.330;2023-12-20T08:40:29;6.30;99.90
23120;DHT22;11729;50.836;4.330;2023-12-20T08:42:55;6.40;99.90
23120;DHT22;11729;50.836;4.330;2023-12-20T08:45:21;6.40;99.90
23120;DHT22;11729;50.836;4.330;2023-12-20T08:47:46;6.40;99.90
23120;DHT22;11729;50.836;4.330;2023-12-20T08:50:12;6.40;99.90
23120;DHT22;11729;50.836;4.330;2023-12-20T08:52:38;6.50;99.90
23120;DHT22;11729;50.836;4.330;2023-12-20T08:55:04;6.60;99.90
23120;DHT22;11729;50.836;4.330;2023-12-20T08:57:31;6.70;99.90
23120;DHT22;11729;50.836;4.330;2023-12-20T08:59:57;6.70;99.90
23120;DHT22;11729;50.836;4.330;2023-12-20T09:02:23;6.70;99.90
23120;DHT22;11729;50.836;4.330;2023-12-20T09:04:49;6.70;99.90
23120;DHT22;11729;50.836;4.330;2023-12-20T09:07:24;6.60;99.90
23120;DHT22;11729;50.836;4.330;2023-12-20T09:09:50;6.60;99.90
23120;DHT22;11729;50.836;4.330;2023-12-20T09:12:18;6.80;99.90
23120;DHT22;11729;50.836;4.330;2023-12-20T09:14:45;6.90;99.90
23120;DHT22;11729;50.836;4.330;2023-12-20T09:17:11;6.80;99.90
23120;DHT22;11729;50.836;4.330;2023-12-20T09:19:37;7.00;99.90
23120;DHT22;11729;50.836;4.330;2023-12-20T09:22:04;7.00;99.90
23120;DHT22;11729;50.836;4.330;2023-12-20T09:24:30;7.10;99.90
23120;DHT22;11729;50.836;4.330;2023-12-20T09:26:56;7.10;99.90
23120;DHT22;11729;50.836;4.330;2023-12-20T09:29:22;7.10;99.90
23120;DHT22;11729;50.836;4.330;2023-12-20T09:31:48;7.00;99.90
23120;DHT22;11729;50.836;4.330;2023-12-20T09:34:15;7.00;99.90
23120;DHT22;11729;50.836;4.330;2023-12-20T09:36:41;7.10;99.90
23120;DHT22;11729;50.836;4.330;2023-12-20T09:39:15;7.20;99.90
23120;DHT22;11729;50.836;4.330;2023-12-20T09:41:45;7.20;99.90
23120;DHT22;11729;50.836;4.330;2023-12-20T09:44:16;7.20;99.90
23120;DHT22;11729;50.836;4.330;2023-12-20T09:46:45;7.30;99.90
23120;DHT22;11729;50.836;4.330;2023-12-20T09:49:14;7.40;99.90
23120;DHT22;11729;50.836;4.330;2023-12-20T09:51:41;7.60;99.90
23120;DHT22;11729;50.836;4.330;2023-12-20T09:54:07;7.70;99.90
23120;DHT22;11729;50.836;4.330;2023-12-20T09:56:33;7.90;99.90
23120;DHT22;11729;50.836;4.330;2023-12-20T09:58:59;8.10;99.90
23120;DHT22;11729;50.836;4.330;2023-12-20T10:01:25;8.40;99.90
23120;DHT22;11729;50.836;4.330;2023-12-20T10:03:54;8.50;99.90
23120;DHT22;11729;50.836;4.330;2023-12-20T10:06:21;8.70;99.90
23120;DHT22;11729;50.836;4.330;2023-12-20T10:08:48;8.70;99.90
23120;DHT22;11729;50.836;4.330;2023-12-20T10:11:14;8.50;99.90
23120;DHT22;11729;50.836;4.330;2023-12-20T10:13:42;8.30;99.90
23120;DHT22;11729;50.836;4.330;2023-12-20T10:16:08;8.30;99.90
23120;DHT22;11729;50.836;4.330;2023-12-20T10:18:33;8.40;99.90
23120;DHT22;11729;50.836;4.330;2023-12-20T10:21:00;8.40;99.90
23120;DHT22;11729;50.836;4.330;2023-12-20T10:23:28;8.50;99.90
23120;DHT22;11729;50.836;4.330;2023-12-20T10:25:57;8.50;99.90
23120;DHT22;11729;50.836;4.330;2023-12-20T10:28:26;8.60;99.90
23120;DHT22;11729;50.836;4.330;2023-12-20T10:30:55;8.60;99.90
23120;DHT22;11729;50.836;4.330;2023-12-20T10:33:27;8.60;99.90
23120;DHT22;11729;50.836;4.330;2023-12-20T10:35:55;8.70;99.90
23120;DHT22;11729;50.836;4.330;2023-12-20T10:38:21;8.80;99.90
23120;DHT22;11729;50.836;4.330;2023-12-20T10:40:49;8.70;99.90
23120;DHT22;11729;50.836;4.330;2023-12-20T10:43:20;8.80;99.90
23120;DHT22;11729;50.836;4.330;2023-12-20T10:45:46;8.90;99.90
23120;DHT22;11729;50.836;4.330;2023-12-20T10:48:18;8.90;99.90
23120;DHT22;11729;50.836;4.330;2023-12-20T10:50:45;8.90;99.90
23120;DHT22;11729;50.836;4.330;2023-12-20T10:53:12;9.00;99.90
23120;DHT22;11729;50.836;4.330;2023-12-20T10:55:38;8.90;99.90
23120;DHT22;11729;50.836;4.330;2023-12-20T10:58:07;9.00;99.90
23120;DHT22;11729;50.836;4.330;2023-12-20T11:00:37;9.00;99.90
23120;DHT22;11729;50.836;4.330;2023-12-20T11:03:04;9.10;99.90
23120;DHT22;11729;50.836;4.330;2023-12-20T11:09:03;9.10;99.90
23120;DHT22;11729;50.836;4.330;2023-12-20T11:11:31;9.30;99.90
23120;DHT22;11729;50.836;4.330;2023-12-20T11:14:02;9.50;99.90
23120;DHT22;11729;50.836;4.330;2023-12-20T11:16:31;9.30;99.90
23120;DHT22;11729;50.836;4.330;2023-12-20T11:19:04;9.20;99.90
23120;DHT22;11729;50.836;4.330;2023-12-20T11:21:32;9.30;99.90
23120;DHT22;11729;50.836;4.330;2023-12-20T11:23:59;9.40;99.90
23120;DHT22;11729;50.836;4.330;2023-12-20T11:26:29;9.40;99.90
23120;DHT22;11729;50.836;4.330;2023-12-20T11:29:30;9.50;99.90
23120;DHT22;11729;50.836;4.330;2023-12-20T11:32:00;9.40;99.90
23120;DHT22;11729;50.836;4.330;2023-12-20T11:34:29;9.30;99.90
23120;DHT22;11729;50.836;4.330;2023-12-20T11:37:00;9.20;99.90
23120;DHT22;11729;50.836;4.330;2023-12-20T11:39:27;9.10;99.90
23120;DHT22;11729;50.836;4.330;2023-12-20T11:41:55;9.10;99.90
23120;DHT22;11729;50.836;4.330;2023-12-20T11:44:21;9.10;99.90
23120;DHT22;11729;50.836;4.330;2023-12-20T11:46:47;9.20;99.90
23120;DHT22;11729;50.836;4.330;2023-12-20T11:49:14;9.10;99.90
23120;DHT22;11729;50.836;4.330;2023-12-20T11:51:44;9.40;99.90
23120;DHT22;11729;50.836;4.330;2023-12-20T11:54:10;9.10;99.90
23120;DHT22;11729;50.836;4.330;2023-12-20T11:56:37;9.20;99.90
23120;DHT22;11729;50.836;4.330;2023-12-20T11:59:03;9.20;99.90
23120;DHT22;11729;50.836;4.330;2023-12-20T12:01:28;9.40;99.90
23120;DHT22;11729;50.836;4.330;2023-12-20T12:04:06;9.40;99.90
23120;DHT22;11729;50.836;4.330;2023-12-20T12:06:32;9.50;99.90
23120;DHT22;11729;50.836;4.330;2023-12-20T12:08:58;9.40;99.90
23120;DHT22;11729;50.836;4.330;2023-12-20T12:11:24;9.50;99.90
23120;DHT22;11729;50.836;4.330;2023-12-20T12:13:50;9.20;99.90
23120;DHT22;11729;50.836;4.330;2023-12-20T12:16:22;9.30;99.90
23120;DHT22;11729;50.836;4.330;2023-12-20T12:18:56;9.40;99.90
23120;DHT22;11729;50.836;4.330;2023-12-20T12:21:21;9.70;99.90
23120;DHT22;11729;50.836;4.330;2023-12-20T12:23:48;9.60;99.90
23120;DHT22;11729;50.836;4.330;2023-12-20T12:26:14;9.60;99.90
23120;DHT22;11729;50.836;4.330;2023-12-20T12:28:41;9.50;99.90
23120;DHT22;11729;50.836;4.330;2023-12-20T12:31:08;9.60;99.90
23120;DHT22;11729;50.836;4.330;2023-12-20T12:33:34;9.60;99.90
23120;DHT22;11729;50.836;4.330;2023-12-20T12:36:01;9.80;99.90
23120;DHT22;11729;50.836;4.330;2023-12-20T12:38:27;9.90;99.90
23120;DHT22;11729;50.836;4.330;2023-12-20T12:40:54;9.70;99.90
23120;DHT22;11729;50.836;4.330;2023-12-20T12:43:20;9.80;99.90
23120;DHT22;11729;50.836;4.330;2023-12-20T12:45:48;9.60;99.90
23120;DHT22;11729;50.836;4.330;2023-12-20T12:48:14;9.60;99.90
23120;DHT22;11729;50.836;4.330;2023-12-20T12:50:40;9.50;99.90
23120;DHT22;11729;50.836;4.330;2023-12-20T12:53:05;9.40;99.90
23120;DHT22;11729;50.836;4.330;2023-12-20T12:55:31;9.60;99.90
23120;DHT22;11729;50.836;4.330;2023-12-20T12:57:57;9.70;99.90
23120;DHT22;11729;50.836;4.330;2023-12-20T13:00:23;9.80;99.90
23120;DHT22;11729;50.836;4.330;2023-12-20T13:02:49;9.70;99.90
23120;DHT22;11729;50.836;4.330;2023-12-20T13:05:15;9.60;99.90
23120;DHT22;11729;50.836;4.330;2023-12-20T13:07:40;9.80;99.90
23120;DHT22;11729;50.836;4.330;2023-12-20T13:10:06;9.70;99.90
23120;DHT22;11729;50.836;4.330;2023-12-20T13:12:32;9.60;99.90
23120;DHT22;11729;50.836;4.330;2023-12-20T13:14:58;9.70;99.90
23120;DHT22;11729;50.836;4.330;2023-12-20T13:17:23;9.70;99.90
23120;DHT22;11729;50.836;4.330;2023-12-20T13:19:49;9.60;99.90
23120;DHT22;11729;50.836;4.330;2023-12-20T13:22:15;9.70;99.90
23120;DHT22;11729;50.836;4.330;2023-12-20T13:24:41;9.80;99.90
23120;DHT22;11729;50.836;4.330;2023-12-20T13:27:09;9.80;99.90
23120;DHT22;11729;50.836;4.330;2023-12-20T13:29:35;10.00;99.90
23120;DHT22;11729;50.836;4.330;2023-12-20T13:32:01;10.00;99.90
23120;DHT22;11729;50.836;4.330;2023-12-20T13:34:27;9.90;99.90
23120;DHT22;11729;50.836;4.330;2023-12-20T13:36:52;9.90;99.90
23120;DHT22;11729;50.836;4.330;2023-12-20T13:39:18;9.90;99.90
23120;DHT22;11729;50.836;4.330;2023-12-20T13:41:44;10.00;99.90
23120;DHT22;11729;50.836;4.330;2023-12-20T13:44:09;10.10;99.90
23120;DHT22;11729;50.836;4.330;2023-12-20T13:46:36;10.10;99.90
23120;DHT22;11729;50.836;4.330;2023-12-20T13:49:02;10.20;99.90
23120;DHT22;11729;50.836;4.330;2023-12-20T13:51:28;10.20;99.90
23120;DHT22;11729;50.836;4.330;2023-12-20T13:53:54;10.30;99.90
23120;DHT22;11729;50.836;4.330;2023-12-20T13:56:19;10.20;99.90
23120;DHT22;11729;50.836;4.330;2023-12-20T13:58:45;10.10;99.90
23120;DHT22;11729;50.836;4.330;2023-12-20T14:01:12;10.20;99.90
23120;DHT22;11729;50.836;4.330;2023-12-20T14:03:38;10.10;99.90
23120;DHT22;11729;50.836;4.330;2023-12-20T14:06:04;10.20;99.90
23120;DHT22;11729;50.836;4.330;2023-12-20T14:08:29;10.20;99.90
23120;DHT22;11729;50.836;4.330;2023-12-20T14:10:55;10.40;99.90
23120;DHT22;11729;50.836;4.330;2023-12-20T14:13:21;10.60;99.90
23120;DHT22;11729;50.836;4.330;2023-12-20T14:15:47;10.70;99.90
23120;DHT22;11729;50.836;4.330;2023-12-20T14:18:14;10.60;99.90
23120;DHT22;11729;50.836;4.330;2023-12-20T14:20:40;10.50;99.90
23120;DHT22;11729;50.836;4.330;2023-12-20T14:23:08;10.40;99.90
23120;DHT22;11729;50.836;4.330;2023-12-20T14:25:35;10.50;99.90
23120;DHT22;11729;50.836;4.330;2023-12-20T14:28:04;10.50;99.90
23120;DHT22;11729;50.836;4.330;2023-12-20T14:30:30;10.60;99.90
23120;DHT22;11729;50.836;4.330;2023-12-20T14:32:55;10.60;99.90
23120;DHT22;11729;50.836;4.330;2023-12-20T14:35:21;10.60;99.90
23120;DHT22;11729;50.836;4.330;2023-12-20T14:37:47;10.50;99.90
23120;DHT22;11729;50.836;4.330;2023-12-20T14:40:12;10.40;99.90
23120;DHT22;11729;50.836;4.330;2023-12-20T14:42:42;10.50;99.90
23120;DHT22;11729;50.836;4.330;2023-12-20T14:45:09;10.40;99.90
23120;DHT22;11729;50.836;4.330;2023-12-20T14:47:35;10.40;99.90
23120;DHT22;11729;50.836;4.330;2023-12-20T14:50:03;10.30;99.90
23120;DHT22;11729;50.836;4.330;2023-12-20T14:52:30;10.30;99.90
23120;DHT22;11729;50.836;4.330;2023-12-20T14:54:55;10.40;99.90
23120;DHT22;11729;50.836;4.330;2023-12-20T14:57:21;10.40;99.90
23120;DHT22;11729;50.836;4.330;2023-12-20T14:59:47;10.40;99.90
23120;DHT22;11729;50.836;4.330;2023-12-20T15:02:12;10.30;99.90
23120;DHT22;11729;50.836;4.330;2023-12-20T15:04:38;10.50;99.90
23120;DHT22;11729;50.836;4.330;2023-12-20T15:07:04;10.80;99.90
23120;DHT22;11729;50.836;4.330;2023-12-20T15:09:35;10.60;99.90
23120;DHT22;11729;50.836;4.330;2023-12-20T15:12:01;10.60;99.90
23120;DHT22;11729;50.836;4.330;2023-12-20T15:14:26;10.50;99.90
23120;DHT22;11729;50.836;4.330;2023-12-20T15:16:54;10.50;99.90
23120;DHT22;11729;50.836;4.330;2023-12-20T15:19:21;10.60;99.90
23120;DHT22;11729;50.836;4.330;2023-12-20T15:21:47;10.60;99.90
23120;DHT22;11729;50.836;4.330;2023-12-20T15:24:15;10.40;99.90
23120;DHT22;11729;50.836;4.330;2023-12-20T15:26:46;10.30;99.90
23120;DHT22;11729;50.836;4.330;2023-12-20T15:29:12;10.20;99.90
23120;DHT22;11729;50.836;4.330;2023-12-20T15:31:45;10.10;99.90
23120;DHT22;11729;50.836;4.330;2023-12-20T15:34:11;10.20;99.90
23120;DHT22;11729;50.836;4.330;2023-12-20T15:36:38;10.20;99.90
23120;DHT22;11729;50.836;4.330;2023-12-20T15:39:05;10.30;99.90
23120;DHT22;11729;50.836;4.330;2023-12-20T15:41:34;10.30;99.90
23120;DHT22;11729;50.836;4.330;2023-12-20T15:44:00;10.30;99.90